Time;durP1;ratioP1;P1;durP2;ratioP2;P2;SDS_P1;SDS_P2;PMS_P1;PMS_P2;Temp;Humidity;BMP_temperature;BMP_pressure;BME280_temperature;BME280_humidity;BME280_pressure;Samples;Min_cycle;Max_cycle;Signal;HPM_P1;HPM_P2
2023/11/19 00:00:11;;;;;;;14.00;4.73;;;5.80;99.90;;;;;;6241502;23;20404;-57
2023/11/19 00:02:38;;;;;;;5.73;4.87;;;5.80;99.90;;;;;;6241165;23;20385;-56
2023/11/19 00:05:08;;;;;;;11.37;6.47;;;5.80;99.90;;;;;;6240931;23;20432;-57
2023/11/19 00:07:36;;;;;;;10.20;5.80;;;5.80;99.90;;;;;;6241555;23;20396;-58
2023/11/19 00:10:10;;;;;;;7.03;5.10;;;5.80;99.90;;;;;;6241107;23;20479;-62
2023/11/19 00:12:37;;;;;;;7.83;5.17;;;5.80;99.90;;;;;;6241117;23;20424;-58
2023/11/19 00:15:05;;;;;;;8.37;6.33;;;5.80;99.90;;;;;;6240598;23;20404;-61
2023/11/19 00:17:32;;;;;;;6.93;4.60;;;5.90;99.90;;;;;;6240690;23;20500;-60
2023/11/19 00:19:59;;;;;;;8.50;5.70;;;5.90;99.90;;;;;;6241082;23;20403;-57
2023/11/19 00:22:27;;;;;;;9.00;5.97;;;5.90;99.90;;;;;;6241082;23;20400;-58
2023/11/19 00:24:54;;;;;;;7.73;5.40;;;5.90;99.90;;;;;;6240976;23;20428;-59
2023/11/19 00:27:21;;;;;;;8.30;5.53;;;5.90;99.90;;;;;;6240483;23;20404;-60
2023/11/19 00:29:48;;;;;;;5.97;4.43;;;5.80;99.90;;;;;;6240604;23;20414;-60
2023/11/19 00:32:15;;;;;;;12.00;6.00;;;5.80;99.90;;;;;;6241047;23;20365;-57
2023/11/19 00:34:45;;;;;;;8.57;4.87;;;5.80;99.90;;;;;;6241465;23;20423;-57
2023/11/19 00:37:11;;;;;;;8.77;4.73;;;5.80;99.90;;;;;;6240529;23;20420;-60
2023/11/19 00:39:40;;;;;;;5.20;4.70;;;5.80;99.90;;;;;;6240494;23;20404;-52
2023/11/19 00:42:07;;;;;;;8.97;5.40;;;5.80;99.90;;;;;;6241118;23;20396;-57
2023/11/19 00:44:33;;;;;;;8.47;5.10;;;5.80;99.90;;;;;;6241013;23;20432;-59
2023/11/19 00:47:00;;;;;;;10.47;4.77;;;5.90;99.90;;;;;;6241603;23;20408;-58
2023/11/19 00:49:27;;;;;;;6.00;4.93;;;5.90;99.90;;;;;;6241323;23;20427;-57
2023/11/19 00:51:54;;;;;;;4.87;4.37;;;5.90;99.90;;;;;;6241283;23;20404;-57
2023/11/19 00:54:22;;;;;;;7.53;4.63;;;5.90;99.90;;;;;;6240815;23;20469;-58
2023/11/19 00:56:52;;;;;;;7.30;5.40;;;5.80;99.90;;;;;;6240763;23;20438;-60
2023/11/19 00:59:19;;;;;;;6.40;4.73;;;5.80;99.90;;;;;;6240360;23;20400;-57
2023/11/19 01:01:47;;;;;;;5.13;4.20;;;5.80;99.90;;;;;;6240474;23;20400;-60
2023/11/19 01:04:14;;;;;;;6.40;4.40;;;5.80;99.90;;;;;;6240995;23;20391;-58
2023/11/19 01:06:41;;;;;;;7.97;4.43;;;5.80;99.90;;;;;;6240667;23;20396;-58
2023/11/19 01:09:09;;;;;;;11.40;5.07;;;5.80;99.90;;;;;;6240052;23;20418;-60
2023/11/19 01:11:36;;;;;;;6.60;4.17;;;5.80;99.90;;;;;;6240691;23;20417;-57
2023/11/19 01:14:05;;;;;;;5.30;4.50;;;5.80;99.90;;;;;;6240502;23;20444;-61
2023/11/19 01:16:31;;;;;;;9.63;4.40;;;5.80;99.90;;;;;;6240638;23;20420;-60
2023/11/19 01:18:58;;;;;;;7.00;4.97;;;5.80;99.90;;;;;;6240274;23;20407;-61
2023/11/19 01:21:26;;;;;;;5.30;4.50;;;5.80;99.90;;;;;;6240857;23;20384;-61
2023/11/19 01:23:53;;;;;;;6.50;4.13;;;5.80;99.90;;;;;;6241242;23;20459;-60
2023/11/19 01:26:19;;;;;;;6.57;4.97;;;5.90;99.90;;;;;;6240225;23;20388;-61
2023/11/19 01:28:48;;;;;;;10.93;4.57;;;5.80;99.90;;;;;;6240306;23;20404;-59
2023/11/19 01:31:17;;;;;;;7.00;4.70;;;5.80;99.90;;;;;;6240127;23;20395;-59
2023/11/19 01:33:44;;;;;;;7.40;4.80;;;5.80;99.90;;;;;;6241083;23;20469;-60
2023/11/19 01:36:14;;;;;;;6.97;5.17;;;5.80;99.90;;;;;;6240608;23;20428;-59
2023/11/19 01:38:41;;;;;;;7.07;4.30;;;5.80;99.90;;;;;;6240678;23;20643;-60
2023/11/19 01:41:11;;;;;;;4.87;4.10;;;5.80;99.90;;;;;;6240760;23;20404;-61
2023/11/19 01:43:41;;;;;;;4.83;3.40;;;5.90;99.90;;;;;;6240103;23;20424;-61
2023/11/19 01:46:09;;;;;;;5.67;5.07;;;5.90;99.90;;;;;;6240002;23;20388;-59
2023/11/19 01:48:41;;;;;;;8.27;4.60;;;5.90;99.90;;;;;;6240292;23;20427;-60
2023/11/19 01:51:09;;;;;;;7.80;4.77;;;5.90;99.90;;;;;;6240255;23;20419;-60
2023/11/19 01:53:37;;;;;;;6.20;3.73;;;5.90;99.90;;;;;;6240604;23;20439;-60
2023/11/19 01:56:09;;;;;;;7.67;4.67;;;6.00;99.90;;;;;;6240384;23;20424;-60
2023/11/19 01:58:38;;;;;;;5.13;3.67;;;5.90;99.90;;;;;;6241184;23;20404;-60
2023/11/19 02:01:07;;;;;;;8.50;5.83;;;5.90;99.90;;;;;;6241071;23;20406;-58
2023/11/19 02:03:34;;;;;;;6.53;4.33;;;5.80;99.90;;;;;;6240899;23;20488;-59
2023/11/19 02:06:03;;;;;;;6.00;4.40;;;5.80;99.90;;;;;;6242861;23;20403;-60
2023/11/19 02:08:31;;;;;;;6.37;4.87;;;5.80;99.90;;;;;;6243018;23;20404;-60
2023/11/19 02:10:58;;;;;;;8.33;4.23;;;5.80;99.90;;;;;;6242444;23;20411;-61
2023/11/19 02:13:25;;;;;;;9.93;4.60;;;5.80;99.90;;;;;;6241885;23;20442;-61
2023/11/19 02:15:52;;;;;;;7.73;3.90;;;5.80;99.90;;;;;;6242878;23;20459;-58
2023/11/19 02:18:23;;;;;;;6.13;4.70;;;5.90;99.90;;;;;;6242274;23;20434;-60
2023/11/19 02:20:51;;;;;;;6.83;4.33;;;5.90;99.90;;;;;;6242786;23;20384;-59
2023/11/19 02:23:21;;;;;;;8.17;4.03;;;5.90;99.90;;;;;;6242085;23;20418;-57
2023/11/19 02:25:58;;;;;;;6.20;4.27;;;5.90;99.90;;;;;;6242708;23;20403;-61
2023/11/19 02:28:26;;;;;;;9.07;4.30;;;5.90;99.90;;;;;;6242079;23;20491;-57
2023/11/19 02:30:54;;;;;;;4.90;3.60;;;5.90;99.90;;;;;;6242146;23;20388;-60
2023/11/19 02:33:21;;;;;;;5.00;3.73;;;5.90;99.90;;;;;;6241987;23;20443;-60
2023/11/19 02:35:47;;;;;;;7.30;5.30;;;5.90;99.90;;;;;;6241751;23;20419;-60
2023/11/19 02:38:15;;;;;;;5.63;3.70;;;5.90;99.90;;;;;;6241669;23;20391;-56
2023/11/19 02:40:42;;;;;;;5.43;4.27;;;5.90;99.90;;;;;;6241857;23;20418;-56
2023/11/19 02:43:09;;;;;;;7.07;4.10;;;5.90;99.90;;;;;;6242110;23;20400;-60
2023/11/19 02:45:37;;;;;;;6.43;4.33;;;6.00;99.90;;;;;;6242161;23;20422;-56
2023/11/19 02:48:06;;;;;;;6.93;4.40;;;6.00;99.90;;;;;;6241649;23;20422;-61
2023/11/19 02:50:33;;;;;;;7.93;4.80;;;6.00;99.90;;;;;;6242209;23;20384;-60
2023/11/19 02:53:01;;;;;;;8.80;4.10;;;6.00;99.90;;;;;;6242065;23;20450;-61
2023/11/19 02:55:30;;;;;;;6.70;3.97;;;6.10;99.90;;;;;;6242596;23;20432;-57
2023/11/19 02:57:59;;;;;;;5.70;4.07;;;6.10;99.90;;;;;;6242446;23;20409;-60
2023/11/19 03:00:33;;;;;;;6.70;4.10;;;6.00;99.90;;;;;;6242844;23;20403;-56
2023/11/19 03:03:10;;;;;;;6.40;4.20;;;6.00;99.90;;;;;;6242657;23;20419;-57
2023/11/19 03:05:37;;;;;;;5.40;3.50;;;6.00;99.90;;;;;;6241799;23;21020;-61
2023/11/19 03:08:04;;;;;;;7.00;4.40;;;6.00;99.90;;;;;;6242038;23;20502;-59
2023/11/19 03:10:31;;;;;;;5.00;4.03;;;6.00;99.90;;;;;;6241475;23;20463;-60
2023/11/19 03:12:59;;;;;;;4.50;3.40;;;6.00;99.90;;;;;;6240985;23;20407;-59
2023/11/19 03:15:26;;;;;;;4.97;3.13;;;6.00;99.90;;;;;;6241470;23;20495;-59
2023/11/19 03:17:53;;;;;;;7.03;4.53;;;6.00;99.90;;;;;;6241641;23;20404;-59
2023/11/19 03:20:23;;;;;;;6.40;4.00;;;6.10;99.90;;;;;;6240983;23;20411;-61
2023/11/19 03:22:50;;;;;;;6.13;4.43;;;6.10;99.90;;;;;;6241284;23;20420;-56
2023/11/19 03:25:17;;;;;;;5.00;3.83;;;6.10;99.90;;;;;;6241711;23;20400;-58
2023/11/19 03:27:44;;;;;;;4.17;3.57;;;6.00;99.90;;;;;;6241857;23;20424;-61
2023/11/19 03:30:12;;;;;;;4.67;3.47;;;6.00;99.90;;;;;;6242124;23;20400;-59
2023/11/19 03:32:39;;;;;;;5.07;3.20;;;6.10;99.90;;;;;;6241690;23;20411;-59
2023/11/19 03:35:08;;;;;;;3.77;3.30;;;6.10;99.90;;;;;;6241674;23;20471;-57
2023/11/19 03:37:37;;;;;;;5.60;4.27;;;6.00;99.90;;;;;;6241510;23;20404;-60
2023/11/19 03:40:05;;;;;;;6.13;3.80;;;6.00;99.90;;;;;;6242752;23;20455;-58
2023/11/19 03:42:32;;;;;;;6.97;4.10;;;5.90;99.90;;;;;;6241195;23;20936;-60
2023/11/19 03:44:59;;;;;;;6.70;4.43;;;5.90;99.90;;;;;;6242233;23;20400;-58
2023/11/19 03:47:28;;;;;;;4.97;3.30;;;5.80;99.90;;;;;;6240927;23;20388;-60
2023/11/19 03:49:55;;;;;;;5.07;3.33;;;5.80;99.90;;;;;;6241428;23;20385;-61
2023/11/19 03:52:22;;;;;;;8.37;5.00;;;5.70;99.90;;;;;;6241855;23;20388;-59
2023/11/19 03:54:50;;;;;;;9.00;4.90;;;5.60;99.90;;;;;;6241677;23;20479;-61
2023/11/19 03:57:17;;;;;;;5.50;4.97;;;5.60;99.90;;;;;;6242088;23;20411;-57
2023/11/19 03:59:44;;;;;;;7.00;4.13;;;5.60;99.90;;;;;;6242194;23;20443;-61
2023/11/19 04:02:11;;;;;;;6.00;4.53;;;5.50;99.90;;;;;;6241722;23;20488;-60
2023/11/19 04:04:38;;;;;;;6.20;4.80;;;5.50;99.90;;;;;;6241831;23;20387;-60
2023/11/19 04:07:06;;;;;;;9.90;4.27;;;5.50;99.90;;;;;;6241875;23;20400;-60
2023/11/19 04:09:33;;;;;;;4.43;3.93;;;5.50;99.90;;;;;;6241881;23;20389;-59
2023/11/19 04:12:02;;;;;;;11.83;4.97;;;5.40;99.90;;;;;;6241618;23;20414;-57
2023/11/19 04:14:28;;;;;;;14.47;5.10;;;5.40;99.90;;;;;;6241839;23;20451;-60
2023/11/19 04:16:55;;;;;;;5.03;3.93;;;5.40;99.90;;;;;;6241986;23;20404;-58
2023/11/19 04:19:22;;;;;;;7.80;5.00;;;5.40;99.90;;;;;;6241962;23;20388;-61
2023/11/19 04:21:49;;;;;;;5.27;4.03;;;5.30;99.90;;;;;;6241676;23;20440;-59
2023/11/19 04:24:16;;;;;;;7.03;3.90;;;5.30;99.90;;;;;;6242166;23;20387;-60
2023/11/19 04:26:44;;;;;;;8.23;5.20;;;5.30;99.90;;;;;;6242148;23;20415;-55
2023/11/19 04:29:14;;;;;;;7.87;4.37;;;5.40;99.90;;;;;;6242094;23;20415;-59
2023/11/19 04:31:41;;;;;;;5.43;3.80;;;5.30;99.90;;;;;;6241859;23;20384;-59
2023/11/19 04:34:08;;;;;;;7.00;5.20;;;5.40;99.90;;;;;;6241145;23;20436;-62
2023/11/19 04:36:37;;;;;;;11.40;5.13;;;5.40;99.90;;;;;;6241483;23;20404;-59
2023/11/19 04:39:08;;;;;;;5.40;4.00;;;5.50;99.90;;;;;;6241292;23;20410;-57
2023/11/19 04:41:36;;;;;;;7.40;4.20;;;5.40;99.90;;;;;;6241142;23;20432;-60
2023/11/19 04:44:03;;;;;;;8.57;6.00;;;5.50;99.90;;;;;;6241007;23;20424;-61
2023/11/19 04:46:32;;;;;;;8.97;4.03;;;5.50;99.90;;;;;;6241046;23;20399;-61
2023/11/19 04:48:58;;;;;;;4.80;3.73;;;5.50;99.90;;;;;;6241015;23;20404;-57
2023/11/19 04:51:25;;;;;;;10.80;5.20;;;5.50;99.90;;;;;;6241184;23;20403;-59
2023/11/19 04:53:52;;;;;;;12.37;4.77;;;5.50;99.90;;;;;;6240590;23;20455;-58
2023/11/19 04:56:19;;;;;;;7.53;5.40;;;5.50;99.90;;;;;;6240811;23;20391;-59
2023/11/19 04:58:46;;;;;;;8.10;4.80;;;5.50;99.90;;;;;;6241567;23;20415;-55
2023/11/19 05:01:17;;;;;;;6.43;4.80;;;5.40;99.90;;;;;;6241436;23;20432;-60
2023/11/19 05:03:46;;;;;;;6.33;4.40;;;5.40;99.90;;;;;;6241170;23;20417;-57
2023/11/19 05:06:13;;;;;;;7.90;4.93;;;5.40;99.90;;;;;;6241413;23;20665;-58
2023/11/19 05:08:40;;;;;;;10.33;6.27;;;5.40;99.90;;;;;;6241728;23;20400;-55
2023/11/19 05:11:07;;;;;;;11.83;5.60;;;5.40;99.90;;;;;;6241366;23;20384;-53
2023/11/19 05:13:34;;;;;;;7.73;4.80;;;5.50;99.90;;;;;;6240925;23;20435;-56
2023/11/19 05:16:00;;;;;;;7.37;4.67;;;5.50;99.90;;;;;;6240966;23;20456;-55
2023/11/19 05:18:26;;;;;;;8.47;4.70;;;5.50;99.90;;;;;;6239996;23;20418;-56
2023/11/19 05:20:57;;;;;;;7.13;4.80;;;5.40;99.90;;;;;;6239884;23;20420;-58
2023/11/19 05:23:24;;;;;;;10.93;5.37;;;5.40;99.90;;;;;;6240649;23;20172;-59
2023/11/19 05:25:51;;;;;;;8.00;4.93;;;5.40;99.90;;;;;;6239695;23;20407;-61
2023/11/19 05:28:18;;;;;;;11.17;5.27;;;5.40;99.90;;;;;;6240725;23;20400;-59
2023/11/19 05:30:45;;;;;;;10.07;5.20;;;5.40;99.90;;;;;;6240119;23;20458;-61
2023/11/19 05:33:12;;;;;;;11.37;5.23;;;5.30;99.90;;;;;;6239732;23;20432;-63
2023/11/19 05:35:38;;;;;;;7.93;5.00;;;5.30;99.90;;;;;;6239770;23;20724;-58
2023/11/19 05:38:07;;;;;;;9.00;5.97;;;5.30;99.90;;;;;;6240397;23;20408;-60
2023/11/19 05:40:33;;;;;;;7.70;5.00;;;5.40;99.90;;;;;;6240142;23;20436;-61
2023/11/19 05:43:00;;;;;;;6.10;4.90;;;5.30;99.90;;;;;;6240408;23;20400;-59
2023/11/19 05:45:27;;;;;;;10.23;5.93;;;5.40;99.90;;;;;;6239599;23;20462;-61
2023/11/19 05:47:54;;;;;;;6.30;4.70;;;5.40;99.90;;;;;;6239331;23;20404;-59
2023/11/19 05:50:21;;;;;;;6.10;5.00;;;5.40;99.90;;;;;;6240453;23;20400;-62
2023/11/19 05:52:48;;;;;;;7.70;5.50;;;5.30;99.90;;;;;;6240818;23;20524;-58
2023/11/19 05:55:17;;;;;;;6.67;4.60;;;5.30;99.90;;;;;;6239634;23;20435;-60
2023/11/19 05:57:45;;;;;;;10.50;5.40;;;5.40;99.90;;;;;;6240081;23;20407;-62
2023/11/19 06:00:15;;;;;;;7.80;4.70;;;5.30;99.90;;;;;;6239962;23;20485;-62
2023/11/19 06:02:42;;;;;;;5.73;5.03;;;5.30;99.90;;;;;;6240246;23;20408;-62
2023/11/19 06:05:09;;;;;;;8.37;4.63;;;5.30;99.90;;;;;;6239919;23;20431;-56
2023/11/19 06:07:38;;;;;;;7.67;5.13;;;5.30;99.90;;;;;;6240023;23;20510;-60
2023/11/19 06:10:09;;;;;;;7.80;5.33;;;5.30;99.90;;;;;;6240435;23;20456;-57
2023/11/19 06:12:38;;;;;;;9.60;6.40;;;5.30;99.90;;;;;;6239973;23;20455;-62
2023/11/19 06:15:08;;;;;;;8.40;5.00;;;5.30;99.90;;;;;;6239449;23;20463;-61
2023/11/19 06:17:35;;;;;;;9.90;5.30;;;5.30;99.90;;;;;;6240070;23;20408;-61
2023/11/19 06:20:05;;;;;;;7.37;5.80;;;5.30;99.90;;;;;;6239512;23;20411;-59
2023/11/19 06:22:32;;;;;;;7.03;5.10;;;5.30;99.90;;;;;;6239747;23;20742;-58
2023/11/19 06:25:00;;;;;;;8.20;4.90;;;5.30;99.90;;;;;;6239499;23;20400;-58
2023/11/19 06:27:26;;;;;;;8.90;5.37;;;5.30;99.90;;;;;;6240098;23;20423;-61
2023/11/19 06:29:55;;;;;;;8.80;5.60;;;5.30;99.90;;;;;;6240215;23;20404;-62
2023/11/19 06:32:22;;;;;;;9.30;5.07;;;5.30;99.90;;;;;;6239730;23;20428;-57
2023/11/19 06:34:48;;;;;;;7.30;4.97;;;5.30;99.90;;;;;;6239722;23;20436;-60
2023/11/19 06:37:17;;;;;;;7.57;5.03;;;5.30;99.90;;;;;;6239933;23;20424;-60
2023/11/19 06:39:44;;;;;;;6.73;4.80;;;5.30;99.90;;;;;;6240038;23;20432;-61
2023/11/19 06:42:13;;;;;;;10.53;6.00;;;5.30;99.90;;;;;;6240273;23;20403;-61
2023/11/19 06:44:42;;;;;;;7.17;4.90;;;5.40;99.90;;;;;;6240001;23;20401;-61
2023/11/19 06:47:12;;;;;;;9.30;6.70;;;5.40;99.90;;;;;;6240375;23;20383;-61
2023/11/19 06:49:39;;;;;;;8.87;5.63;;;5.40;99.90;;;;;;6240365;23;20408;-60
2023/11/19 06:52:06;;;;;;;7.83;6.40;;;5.40;99.90;;;;;;6241463;23;20412;-59
2023/11/19 06:54:33;;;;;;;6.97;4.33;;;5.50;99.90;;;;;;6242511;23;20431;-58
2023/11/19 06:57:00;;;;;;;7.13;4.50;;;5.50;99.90;;;;;;6242403;23;20404;-62
2023/11/19 06:59:26;;;;;;;7.73;4.60;;;5.50;99.90;;;;;;6242056;23;20420;-61
2023/11/19 07:01:53;;;;;;;15.53;5.80;;;5.50;99.90;;;;;;6241886;23;20486;-62
2023/11/19 07:04:22;;;;;;;8.40;5.00;;;5.50;99.90;;;;;;6241905;23;20388;-62
2023/11/19 07:06:52;;;;;;;6.20;4.13;;;5.50;99.90;;;;;;6242166;23;20387;-62
2023/11/19 07:09:19;;;;;;;5.90;4.30;;;5.50;99.90;;;;;;6241564;23;20415;-60
2023/11/19 07:11:46;;;;;;;7.17;5.40;;;5.50;99.90;;;;;;6241267;23;20427;-58
2023/11/19 07:14:13;;;;;;;5.83;4.10;;;5.50;99.90;;;;;;6242263;23;20455;-59
2023/11/19 07:16:40;;;;;;;11.77;6.20;;;5.60;99.90;;;;;;6241710;23;20404;-62
2023/11/19 07:19:07;;;;;;;8.57;6.27;;;5.60;99.90;;;;;;6241516;23;20450;-58
2023/11/19 07:21:39;;;;;;;7.27;4.57;;;5.70;99.90;;;;;;6241235;23;20442;-59
2023/11/19 07:24:07;;;;;;;10.57;6.67;;;5.10;99.90;;;;;;6241345;23;20392;-62
2023/11/19 07:26:33;;;;;;;12.60;5.30;;;5.60;99.90;;;;;;6241460;23;20404;-59
2023/11/19 07:29:01;;;;;;;10.07;5.87;;;5.70;99.90;;;;;;6241315;23;20399;-60
2023/11/19 07:31:28;;;;;;;11.07;7.63;;;5.70;99.90;;;;;;6241576;23;20462;-61
2023/11/19 07:33:54;;;;;;;10.60;7.10;;;5.80;99.90;;;;;;6241548;23;20479;-57
2023/11/19 07:36:21;;;;;;;9.30;5.97;;;5.80;99.90;;;;;;6240870;23;20436;-60
2023/11/19 07:38:50;;;;;;;15.37;7.77;;;5.80;99.90;;;;;;6240928;23;20212;-59
2023/11/19 07:41:17;;;;;;;8.63;5.30;;;5.80;99.90;;;;;;6241580;23;20475;-58
2023/11/19 07:43:46;;;;;;;9.80;6.93;;;5.80;99.90;;;;;;6241042;23;20914;-60
2023/11/19 07:46:13;;;;;;;11.00;5.00;;;5.90;99.90;;;;;;6241455;23;20442;-60
2023/11/19 07:48:42;;;;;;;5.93;4.10;;;5.90;99.90;;;;;;6241063;23;20573;-61
2023/11/19 07:51:09;;;;;;;9.37;4.93;;;5.90;99.90;;;;;;6241020;23;20432;-61
2023/11/19 07:53:38;;;;;;;7.00;4.40;;;6.00;99.90;;;;;;6241282;23;20396;-61
2023/11/19 07:56:07;;;;;;;7.03;5.20;;;6.00;99.90;;;;;;6240973;23;20440;-60
2023/11/19 07:58:34;;;;;;;9.30;5.23;;;6.00;99.90;;;;;;6241535;23;20406;-58
2023/11/19 08:01:01;;;;;;;7.30;4.87;;;6.00;99.90;;;;;;6241293;23;20391;-60
2023/11/19 08:03:34;;;;;;;8.20;5.00;;;6.10;99.90;;;;;;6240952;23;20404;-59
2023/11/19 08:06:00;;;;;;;7.60;5.17;;;6.10;99.90;;;;;;6240700;23;20376;-64
2023/11/19 08:08:29;;;;;;;11.60;5.97;;;6.10;99.90;;;;;;6240979;23;20384;-61
2023/11/19 08:10:56;;;;;;;5.77;4.67;;;6.20;99.90;;;;;;6241100;23;20442;-62
2023/11/19 08:13:24;;;;;;;5.43;4.77;;;6.20;99.90;;;;;;6240602;23;20440;-59
2023/11/19 08:15:51;;;;;;;6.27;3.97;;;6.30;99.90;;;;;;6240589;23;20439;-61
2023/11/19 08:18:19;;;;;;;7.47;5.23;;;6.30;99.90;;;;;;6240850;23;20420;-60
2023/11/19 08:20:48;;;;;;;7.93;4.70;;;6.40;99.90;;;;;;6241359;23;20408;-59
2023/11/19 08:23:18;;;;;;;7.20;5.07;;;6.40;99.90;;;;;;6240803;23;20407;-61
2023/11/19 08:25:45;;;;;;;7.43;5.00;;;6.50;99.90;;;;;;6240363;23;20384;-62
2023/11/19 08:28:12;;;;;;;6.60;4.90;;;6.50;99.90;;;;;;6240629;23;20464;-60
2023/11/19 08:30:40;;;;;;;10.13;5.57;;;6.60;99.90;;;;;;6240282;23;20424;-60
2023/11/19 08:33:07;;;;;;;7.00;4.90;;;6.60;99.90;;;;;;6240501;23;20408;-61
2023/11/19 08:35:34;;;;;;;6.47;4.70;;;6.60;99.90;;;;;;6240230;23;20442;-59
2023/11/19 08:38:01;;;;;;;5.87;4.10;;;6.70;99.90;;;;;;6240314;23;20452;-60
2023/11/19 08:40:29;;;;;;;10.50;5.10;;;6.80;99.90;;;;;;6239993;23;20726;-61
2023/11/19 08:42:56;;;;;;;10.40;5.60;;;6.80;99.90;;;;;;6239624;23;20813;-62
2023/11/19 08:45:23;;;;;;;7.47;5.27;;;6.90;99.90;;;;;;6239581;23;20435;-62
2023/11/19 08:47:51;;;;;;;10.53;5.70;;;6.90;99.90;;;;;;6238940;23;20408;-60
2023/11/19 08:50:18;;;;;;;7.33;4.70;;;7.00;99.90;;;;;;6238543;23;20380;-60
2023/11/19 08:52:45;;;;;;;4.37;3.97;;;7.00;99.90;;;;;;6239494;23;20407;-58
2023/11/19 08:55:13;;;;;;;8.20;5.40;;;7.20;99.90;;;;;;6239605;23;20463;-61
2023/11/19 08:57:40;;;;;;;7.73;6.83;;;7.30;99.90;;;;;;6239564;23;20423;-61
2023/11/19 09:00:08;;;;;;;10.40;5.90;;;7.30;99.90;;;;;;6240208;23;20500;-56
2023/11/19 09:02:36;;;;;;;7.07;4.53;;;7.40;99.90;;;;;;6214533;23;20423;-61
2023/11/19 09:05:07;;;;;;;10.40;4.37;;;7.40;99.90;;;;;;6239260;23;20415;-59
2023/11/19 09:07:34;;;;;;;4.67;3.37;;;7.40;99.90;;;;;;6239505;23;20392;-61
2023/11/19 09:10:01;;;;;;;5.77;3.90;;;7.50;99.90;;;;;;6238953;23;20387;-60
2023/11/19 09:12:28;;;;;;;5.27;3.70;;;7.50;99.90;;;;;;6239056;23;20404;-59
2023/11/19 09:14:55;;;;;;;7.73;4.40;;;7.60;99.90;;;;;;6238755;23;20436;-57
2023/11/19 09:17:21;;;;;;;6.03;3.97;;;7.70;99.90;;;;;;6238549;23;20455;-54
2023/11/19 09:19:48;;;;;;;8.33;4.57;;;7.80;99.90;;;;;;6238827;23;20400;-60
2023/11/19 09:22:16;;;;;;;3.77;2.73;;;8.00;99.90;;;;;;6239454;23;20435;-60
2023/11/19 09:24:44;;;;;;;9.63;4.47;;;8.10;99.90;;;;;;6238945;23;20494;-61
2023/11/19 09:27:11;;;;;;;6.33;3.43;;;8.20;99.90;;;;;;6239842;23;20407;-58
2023/11/19 09:29:38;;;;;;;6.80;3.87;;;8.20;99.90;;;;;;6238768;23;20925;-58
2023/11/19 09:32:06;;;;;;;3.77;3.37;;;8.40;99.90;;;;;;6238674;23;20408;-60
2023/11/19 09:34:35;;;;;;;5.13;3.73;;;8.60;99.90;;;;;;6238671;23;20419;-59
2023/11/19 09:37:02;;;;;;;8.60;3.57;;;8.70;99.90;;;;;;6238541;23;20440;-60
2023/11/19 09:39:31;;;;;;;5.07;3.10;;;8.80;99.90;;;;;;6238766;23;20423;-61
2023/11/19 09:41:57;;;;;;;4.60;3.60;;;8.80;99.90;;;;;;6238745;23;20408;-59
2023/11/19 09:44:25;;;;;;;4.07;2.80;;;8.90;99.90;;;;;;6238327;23;20408;-56
2023/11/19 09:46:53;;;;;;;5.23;2.50;;;9.00;99.90;;;;;;6237938;23;20420;-60
2023/11/19 09:49:23;;;;;;;3.00;2.40;;;9.10;99.90;;;;;;6237907;23;20400;-59
2023/11/19 09:51:50;;;;;;;3.93;2.80;;;9.40;99.90;;;;;;6237767;23;20432;-54
2023/11/19 09:54:17;;;;;;;3.80;2.57;;;9.70;99.90;;;;;;6237019;23;20411;-57
2023/11/19 09:56:46;;;;;;;3.13;2.80;;;10.10;99.90;;;;;;6236296;23;20920;-60
2023/11/19 09:59:13;;;;;;;3.30;2.20;;;10.50;99.90;;;;;;6236061;23;20403;-56
2023/11/19 10:01:41;;;;;;;2.33;2.03;;;10.50;99.90;;;;;;6236356;23;20400;-55
2023/11/19 10:04:08;;;;;;;2.73;1.90;;;10.50;99.90;;;;;;6236346;23;20424;-61
2023/11/19 10:06:35;;;;;;;6.63;2.20;;;10.40;99.90;;;;;;6236364;23;20392;-59
2023/11/19 10:09:04;;;;;;;5.10;2.10;;;10.40;99.90;;;;;;6236862;23;20411;-60
2023/11/19 10:11:31;;;;;;;3.33;2.47;;;10.40;99.90;;;;;;6237182;23;20396;-56
2023/11/19 10:14:00;;;;;;;6.73;2.03;;;10.30;99.90;;;;;;6236484;23;20412;-57
2023/11/19 10:16:31;;;;;;;4.80;2.80;;;10.30;99.90;;;;;;6236297;23;20459;-59
2023/11/19 10:18:58;;;;;;;4.30;2.53;;;10.30;99.90;;;;;;6236811;23;20452;-57
2023/11/19 10:21:27;;;;;;;4.20;3.00;;;10.30;99.90;;;;;;6235939;23;20439;-59
2023/11/19 10:23:56;;;;;;;6.33;3.50;;;10.40;99.90;;;;;;6236303;23;20452;-59
2023/11/19 10:26:24;;;;;;;5.90;3.20;;;10.50;99.90;;;;;;6238544;23;20430;-58
2023/11/19 10:28:53;;;;;;;4.03;2.73;;;10.60;99.90;;;;;;6239105;23;20388;-59
2023/11/19 10:31:25;;;;;;;4.40;2.30;;;10.60;99.90;;;;;;6239058;23;20407;-59
2023/11/19 10:33:52;;;;;;;3.87;2.70;;;10.70;99.90;;;;;;6239329;23;20439;-60
2023/11/19 10:36:19;;;;;;;3.60;3.10;;;10.80;99.90;;;;;;6238277;23;20523;-56
2023/11/19 10:38:57;;;;;;;4.33;2.63;;;10.90;99.90;;;;;;6238730;23;20420;-58
2023/11/19 10:41:33;;;;;;;8.47;4.10;;;11.10;99.90;;;;;;6239407;23;20431;-61
2023/11/19 10:44:01;;;;;;;4.30;2.17;;;11.30;99.90;;;;;;6239409;23;20384;-57
2023/11/19 10:46:40;;;;;;;3.73;2.53;;;11.40;99.90;;;;;;6239018;23;20391;-58
2023/11/19 10:49:07;;;;;;;5.57;3.17;;;11.50;99.90;;;;;;6239109;23;20384;-57
2023/11/19 10:51:34;;;;;;;12.90;2.47;;;11.50;99.90;;;;;;6237826;23;20435;-58
2023/11/19 10:54:05;;;;;;;5.00;2.30;;;11.60;99.90;;;;;;6238091;23;20403;-56
2023/11/19 10:56:33;;;;;;;3.97;2.20;;;11.60;99.90;;;;;;6236895;23;20534;-54
2023/11/19 10:59:01;;;;;;;6.20;2.60;;;11.50;99.90;;;;;;6238377;23;20412;-55
2023/11/19 11:01:33;;;;;;;4.63;2.87;;;11.60;99.90;;;;;;6235962;23;20414;-59
2023/11/19 11:04:04;;;;;;;3.33;2.20;;;11.60;99.90;;;;;;6235805;23;20486;-59
2023/11/19 11:06:31;;;;;;;8.37;2.67;;;11.60;99.90;;;;;;6235304;23;20384;-60
2023/11/19 11:09:00;;;;;;;8.93;3.07;;;11.50;99.90;;;;;;6235852;23;20404;-64
2023/11/19 11:11:28;;;;;;;6.17;3.50;;;11.50;99.90;;;;;;6235966;23;20403;-64
2023/11/19 11:13:57;;;;;;;4.60;2.30;;;11.40;99.90;;;;;;6235636;23;20408;-59
2023/11/19 11:16:26;;;;;;;7.50;2.53;;;11.40;99.90;;;;;;6234820;23;20447;-58
2023/11/19 11:18:54;;;;;;;4.47;2.90;;;11.40;99.90;;;;;;6235523;23;20408;-62
2023/11/19 11:21:26;;;;;;;6.23;2.63;;;11.30;99.90;;;;;;6234431;23;20414;-60
2023/11/19 11:24:30;;;;;;;3.93;2.20;;;11.30;99.90;;;;;;6234614;23;20384;-61
2023/11/19 11:27:17;;;;;;;5.73;2.00;;;11.40;99.90;;;;;;6235909;23;20376;-61
2023/11/19 11:29:58;;;;;;;10.60;3.40;;;11.40;99.90;;;;;;6235090;23;20819;-61
2023/11/19 11:32:34;;;;;;;6.37;2.60;;;11.40;99.90;;;;;;6235098;23;20404;-60
2023/11/19 11:35:27;;;;;;;8.10;3.70;;;11.50;99.90;;;;;;6233693;23;20483;-61
2023/11/19 11:38:02;;;;;;;7.97;2.87;;;11.50;99.90;;;;;;6229957;23;20414;-62
2023/11/19 11:40:29;;;;;;;6.67;2.60;;;11.60;99.90;;;;;;6235084;23;20427;-63
2023/11/19 11:42:56;;;;;;;9.53;3.10;;;11.70;99.90;;;;;;6234956;23;20400;-62
2023/11/19 11:45:37;;;;;;;7.43;2.43;;;11.70;99.90;;;;;;6233518;23;20404;-62
2023/11/19 11:48:16;;;;;;;9.67;2.90;;;11.80;99.90;;;;;;6233478;23;20496;-62
2023/11/19 11:50:50;;;;;;;6.20;2.60;;;11.80;99.90;;;;;;6233559;23;20411;-62
2023/11/19 11:53:22;;;;;;;7.27;2.70;;;11.90;99.90;;;;;;6233489;23;20420;-61
2023/11/19 11:55:58;;;;;;;8.47;3.27;;;11.90;99.90;;;;;;6232445;23;20435;-61
2023/11/19 11:58:38;;;;;;;9.30;2.83;;;12.00;99.90;;;;;;6233180;23;20416;-61
2023/11/19 12:01:09;;;;;;;10.17;3.03;;;12.00;99.90;;;;;;6233180;23;20454;-61
2023/11/19 12:03:36;;;;;;;12.03;3.73;;;12.10;99.90;;;;;;6233268;23;20487;-59
2023/11/19 12:06:03;;;;;;;8.17;3.07;;;12.20;99.90;;;;;;6233368;23;20428;-60
2023/11/19 12:08:31;;;;;;;7.57;3.13;;;12.20;99.90;;;;;;6234004;23;20404;-61
2023/11/19 12:10:59;;;;;;;13.83;4.33;;;12.30;99.90;;;;;;6233507;23;20416;-60
2023/11/19 12:13:44;;;;;;;9.03;2.87;;;12.20;99.90;;;;;;6233036;23;20457;-62
2023/11/19 12:16:12;;;;;;;10.83;3.30;;;12.20;99.90;;;;;;6231980;23;20438;-62
2023/11/19 12:18:41;;;;;;;11.03;4.00;;;12.20;99.90;;;;;;6233024;23;20442;-59
2023/11/19 12:21:09;;;;;;;29.03;4.80;;;12.20;99.90;;;;;;6232475;23;20483;-60
2023/11/19 12:23:49;;;;;;;11.20;3.33;;;12.20;99.90;;;;;;6231931;23;20435;-60
2023/11/19 12:26:40;;;;;;;4.27;3.63;;;12.20;99.90;;;;;;6232636;23;20389;-59
2023/11/19 12:29:08;;;;;;;9.47;3.97;;;12.20;99.90;;;;;;6202800;23;20423;-59
2023/11/19 12:31:38;;;;;;;8.77;3.33;;;12.20;99.90;;;;;;6232833;23;20435;-60
2023/11/19 12:34:11;;;;;;;7.80;2.77;;;12.10;99.90;;;;;;6234084;23;20411;-58
2023/11/19 12:36:40;;;;;;;6.23;3.00;;;12.10;99.90;;;;;;6231165;23;20506;-58
2023/11/19 12:39:10;;;;;;;10.10;3.33;;;12.10;99.90;;;;;;6233051;23;20411;-58
2023/11/19 12:41:54;;;;;;;9.33;3.40;;;12.00;99.90;;;;;;6232881;23;20415;-60
2023/11/19 12:44:22;;;;;;;10.07;4.17;;;12.00;99.90;;;;;;6231929;23;20392;-59
2023/11/19 12:47:04;;;;;;;9.23;3.10;;;12.00;99.90;;;;;;6232980;23;20474;-60
2023/11/19 12:49:31;;;;;;;6.27;3.53;;;11.90;99.90;;;;;;6232049;23;20428;-60
2023/11/19 12:51:58;;;;;;;11.77;3.03;;;11.90;99.90;;;;;;6232369;23;20404;-61
2023/11/19 12:54:35;;;;;;;14.53;3.10;;;11.80;99.90;;;;;;6232161;23;20415;-60
2023/11/19 12:57:02;;;;;;;3.43;2.50;;;11.90;99.90;;;;;;6232311;23;20435;-59
2023/11/19 12:59:30;;;;;;;11.53;2.70;;;11.90;99.90;;;;;;6234204;23;20440;-59